Weather at Megaworld Heliport

Public forecast

Using degrees Celsius for public forecast. Weather courtesy of forecast.io.

Closest aviation weather report (METAR) to Megaworld Heliport

Closest report is Ninoy Aquino International Airport, 3.2 nm (5.8 km) S. Retrieved 2020/10/27 03:00 UTC (46 minutes ago):

RPLL 270300Z VRB07KT 9999 FEW025 BKN100 31/24 Q1008 RESHRA NOSIG RMK A2977

Closest aviation forecast (TAF) to Megaworld Heliport

Closest forecast is Ninoy Aquino International Airport, 3.2 nm (5.8 km) S. Retrieved 2020-10-27 00:00 UTC (4 hours ago):

TAF RPLL 262300Z 2700/2806 10007KT 9999 SCT023 BKN100 TX29/2704Z TN25/2721Z TEMPO 2700/2706 -SHRA SCT023 OVC100 TEMPO 2706/2712 7000 -TSRA FEW020CB SCT023 OVC090